sensor_id;sensor_type;location;lat;lon;timestamp;pressure;altitude;pressure_sealevel;temperature;humidity
42105;BME280;61464;51.472;5.712;2022-07-11T00:02:12;102231.44;;;15.51;85.96
42105;BME280;61464;51.472;5.712;2022-07-11T00:04:39;102227.31;;;15.48;86.02
42105;BME280;61464;51.472;5.712;2022-07-11T00:07:06;102234.50;;;15.46;86.34
42105;BME280;61464;51.472;5.712;2022-07-11T00:09:32;102234.63;;;15.36;86.51
42105;BME280;61464;51.472;5.712;2022-07-11T00:11:59;102241.19;;;15.40;87.00
42105;BME280;61464;51.472;5.712;2022-07-11T00:14:26;102220.66;;;15.27;87.33
42105;BME280;61464;51.472;5.712;2022-07-11T00:16:53;102209.59;;;15.07;87.40
42105;BME280;61464;51.472;5.712;2022-07-11T00:19:20;102221.78;;;15.25;87.85
42105;BME280;61464;51.472;5.712;2022-07-11T00:21:47;102223.59;;;15.24;87.98
42105;BME280;61464;51.472;5.712;2022-07-11T00:24:13;102232.59;;;15.22;88.40
42105;BME280;61464;51.472;5.712;2022-07-11T00:26:39;102228.25;;;15.13;88.53
42105;BME280;61464;51.472;5.712;2022-07-11T00:29:05;102228.91;;;15.15;88.72
42105;BME280;61464;51.472;5.712;2022-07-11T00:31:32;102228.41;;;15.11;88.59
42105;BME280;61464;51.472;5.712;2022-07-11T00:33:58;102229.00;;;15.05;88.82
42105;BME280;61464;51.472;5.712;2022-07-11T00:36:24;102210.97;;;14.94;89.16
42105;BME280;61464;51.472;5.712;2022-07-11T00:38:50;102231.94;;;15.02;89.41
42105;BME280;61464;51.472;5.712;2022-07-11T00:41:16;102220.13;;;14.98;89.74
42105;BME280;61464;51.472;5.712;2022-07-11T00:43:43;102223.03;;;14.95;89.96
42105;BME280;61464;51.472;5.712;2022-07-11T00:46:09;102212.44;;;14.96;90.33
42105;BME280;61464;51.472;5.712;2022-07-11T00:48:36;102218.78;;;14.94;90.17
42105;BME280;61464;51.472;5.712;2022-07-11T00:51:03;102202.00;;;14.78;90.29
42105;BME280;61464;51.472;5.712;2022-07-11T00:53:30;102212.03;;;14.83;90.72
42105;BME280;61464;51.472;5.712;2022-07-11T00:55:56;102205.72;;;14.76;91.34
42105;BME280;61464;51.472;5.712;2022-07-11T00:58:23;102208.22;;;14.77;91.55
42105;BME280;61464;51.472;5.712;2022-07-11T01:00:50;102209.16;;;14.76;91.50
42105;BME280;61464;51.472;5.712;2022-07-11T01:03:16;102210.97;;;14.76;91.77
42105;BME280;61464;51.472;5.712;2022-07-11T01:05:42;102216.13;;;14.67;91.93
42105;BME280;61464;51.472;5.712;2022-07-11T01:08:08;102207.47;;;14.67;92.50
42105;BME280;61464;51.472;5.712;2022-07-11T01:10:35;102217.91;;;14.67;92.71
42105;BME280;61464;51.472;5.712;2022-07-11T01:13:01;102199.09;;;14.63;92.68
42105;BME280;61464;51.472;5.712;2022-07-11T01:15:27;102212.31;;;14.62;93.20
42105;BME280;61464;51.472;5.712;2022-07-11T01:17:53;102206.41;;;14.60;93.46
42105;BME280;61464;51.472;5.712;2022-07-11T01:20:22;102208.88;;;14.61;93.45
42105;BME280;61464;51.472;5.712;2022-07-11T01:25:23;102206.16;;;14.53;93.83
42105;BME280;61464;51.472;5.712;2022-07-11T01:28:04;102203.31;;;14.46;93.97
42105;BME280;61464;51.472;5.712;2022-07-11T01:30:31;102206.63;;;14.48;94.21
42105;BME280;61464;51.472;5.712;2022-07-11T01:32:58;102208.56;;;14.46;94.72
42105;BME280;61464;51.472;5.712;2022-07-11T01:35:25;102218.47;;;14.43;94.84
42105;BME280;61464;51.472;5.712;2022-07-11T01:37:52;102204.13;;;14.47;94.90
42105;BME280;61464;51.472;5.712;2022-07-11T01:40:17;102211.63;;;14.60;94.67
42105;BME280;61464;51.472;5.712;2022-07-11T01:42:44;102202.84;;;14.61;94.34
42105;BME280;61464;51.472;5.712;2022-07-11T01:45:10;102205.88;;;14.74;94.04
42105;BME280;61464;51.472;5.712;2022-07-11T01:47:37;102204.59;;;14.78;93.94
42105;BME280;61464;51.472;5.712;2022-07-11T01:50:04;102204.69;;;14.86;93.79
42105;BME280;61464;51.472;5.712;2022-07-11T01:52:30;102213.84;;;14.91;93.49
42105;BME280;61464;51.472;5.712;2022-07-11T01:54:56;102211.09;;;14.92;93.65
42105;BME280;61464;51.472;5.712;2022-07-11T01:57:22;102209.97;;;14.95;93.62
42105;BME280;61464;51.472;5.712;2022-07-11T01:59:48;102196.09;;;14.94;93.24
42105;BME280;61464;51.472;5.712;2022-07-11T02:02:14;102212.22;;;15.07;93.15
42105;BME280;61464;51.472;5.712;2022-07-11T02:04:41;102226.81;;;15.18;92.97
42105;BME280;61464;51.472;5.712;2022-07-11T02:07:07;102226.81;;;15.18;92.69
42105;BME280;61464;51.472;5.712;2022-07-11T02:09:33;102213.09;;;15.16;92.63
42105;BME280;61464;51.472;5.712;2022-07-11T02:12:00;102212.63;;;15.21;92.52
42105;BME280;61464;51.472;5.712;2022-07-11T02:14:25;102207.53;;;15.19;92.29
42105;BME280;61464;51.472;5.712;2022-07-11T02:16:51;102211.03;;;15.28;92.27
42105;BME280;61464;51.472;5.712;2022-07-11T02:19:17;102198.41;;;15.23;91.87
42105;BME280;61464;51.472;5.712;2022-07-11T02:21:43;102214.16;;;15.32;91.80
42105;BME280;61464;51.472;5.712;2022-07-11T02:24:09;102209.91;;;15.31;91.53
42105;BME280;61464;51.472;5.712;2022-07-11T02:26:35;102206.28;;;15.32;91.67
42105;BME280;61464;51.472;5.712;2022-07-11T02:29:02;102205.19;;;15.34;91.60
42105;BME280;61464;51.472;5.712;2022-07-11T02:31:28;102200.78;;;15.35;91.57
42105;BME280;61464;51.472;5.712;2022-07-11T02:33:54;102196.09;;;15.20;91.71
42105;BME280;61464;51.472;5.712;2022-07-11T02:36:19;102208.47;;;15.36;91.77
42105;BME280;61464;51.472;5.712;2022-07-11T02:38:45;102212.88;;;15.36;91.44
42105;BME280;61464;51.472;5.712;2022-07-11T02:41:11;102208.47;;;15.36;91.51
42105;BME280;61464;51.472;5.712;2022-07-11T02:43:38;102208.47;;;15.36;91.49
42105;BME280;61464;51.472;5.712;2022-07-11T02:46:04;102200.44;;;15.38;91.14
42105;BME280;61464;51.472;5.712;2022-07-11T02:48:31;102197.88;;;15.46;91.05
42105;BME280;61464;51.472;5.712;2022-07-11T02:50:57;102202.78;;;15.41;91.18
42105;BME280;61464;51.472;5.712;2022-07-11T02:53:23;102202.44;;;15.44;91.15
42105;BME280;61464;51.472;5.712;2022-07-11T02:55:49;102202.97;;;15.47;91.00
42105;BME280;61464;51.472;5.712;2022-07-11T02:58:15;102207.72;;;15.52;90.57
42105;BME280;61464;51.472;5.712;2022-07-11T03:00:41;102198.91;;;15.53;90.67
42105;BME280;61464;51.472;5.712;2022-07-11T03:03:07;102190.25;;;15.53;90.28
42105;BME280;61464;51.472;5.712;2022-07-11T03:05:33;102203.00;;;15.56;90.40
42105;BME280;61464;51.472;5.712;2022-07-11T03:07:59;102202.50;;;15.52;90.23
42105;BME280;61464;51.472;5.712;2022-07-11T03:10:25;102207.56;;;15.54;90.40
42105;BME280;61464;51.472;5.712;2022-07-11T03:12:51;102204.63;;;15.48;90.46
42105;BME280;61464;51.472;5.712;2022-07-11T03:15:17;102205.78;;;15.54;90.40
42105;BME280;61464;51.472;5.712;2022-07-11T03:17:43;102207.72;;;15.52;90.24
42105;BME280;61464;51.472;5.712;2022-07-11T03:20:10;102210.56;;;15.59;90.20
42105;BME280;61464;51.472;5.712;2022-07-11T03:22:36;102205.31;;;15.59;90.12
42105;BME280;61464;51.472;5.712;2022-07-11T03:25:03;102214.00;;;15.59;90.12
42105;BME280;61464;51.472;5.712;2022-07-11T03:27:34;102191.16;;;15.43;90.20
42105;BME280;61464;51.472;5.712;2022-07-11T03:30:01;102216.41;;;15.53;90.46
42105;BME280;61464;51.472;5.712;2022-07-11T03:32:26;102218.72;;;15.56;90.37
42105;BME280;61464;51.472;5.712;2022-07-11T03:34:52;102210.34;;;15.52;90.32
42105;BME280;61464;51.472;5.712;2022-07-11T03:37:36;102214.50;;;15.63;90.32
42105;BME280;61464;51.472;5.712;2022-07-11T03:40:02;102213.19;;;15.59;90.17
42105;BME280;61464;51.472;5.712;2022-07-11T03:42:28;102215.31;;;15.63;90.02
42105;BME280;61464;51.472;5.712;2022-07-11T03:44:54;102212.22;;;15.68;89.97
42105;BME280;61464;51.472;5.712;2022-07-11T03:47:20;102220.22;;;15.66;90.11
42105;BME280;61464;51.472;5.712;2022-07-11T03:49:46;102222.84;;;15.66;89.89
42105;BME280;61464;51.472;5.712;2022-07-11T03:52:13;102214.84;;;15.68;89.71
42105;BME280;61464;51.472;5.712;2022-07-11T03:54:39;102221.81;;;15.77;89.52
42105;BME280;61464;51.472;5.712;2022-07-11T03:57:05;102217.84;;;15.73;89.37
42105;BME280;61464;51.472;5.712;2022-07-11T03:59:31;102224.88;;;15.73;89.48
42105;BME280;61464;51.472;5.712;2022-07-11T04:01:57;102208.47;;;15.70;89.31
42105;BME280;61464;51.472;5.712;2022-07-11T04:04:23;102213.47;;;15.82;89.52
42105;BME280;61464;51.472;5.712;2022-07-11T04:06:49;102200.88;;;15.77;89.07
42105;BME280;61464;51.472;5.712;2022-07-11T04:09:14;102213.00;;;15.86;89.11
42105;BME280;61464;51.472;5.712;2022-07-11T04:11:41;102215.97;;;15.92;89.10
42105;BME280;61464;51.472;5.712;2022-07-11T04:14:07;102218.25;;;15.95;88.78
42105;BME280;61464;51.472;5.712;2022-07-11T04:16:32;102206.94;;;15.86;88.98
42105;BME280;61464;51.472;5.712;2022-07-11T04:18:58;102222.53;;;15.96;88.75
42105;BME280;61464;51.472;5.712;2022-07-11T04:21:24;102222.34;;;15.97;88.71
42105;BME280;61464;51.472;5.712;2022-07-11T04:23:50;102207.13;;;15.93;88.92
42105;BME280;61464;51.472;5.712;2022-07-11T04:26:15;102225.97;;;15.96;89.10
42105;BME280;61464;51.472;5.712;2022-07-11T04:28:42;102216.13;;;15.90;89.10
42105;BME280;61464;51.472;5.712;2022-07-11T04:31:07;102219.25;;;15.94;88.91
42105;BME280;61464;51.472;5.712;2022-07-11T04:33:33;102209.75;;;15.93;89.25
42105;BME280;61464;51.472;5.712;2022-07-11T04:35:59;102218.25;;;15.95;89.24
42105;BME280;61464;51.472;5.712;2022-07-11T04:38:25;102218.63;;;16.00;88.92
42105;BME280;61464;51.472;5.712;2022-07-11T04:40:51;102217.78;;;15.99;88.93
42105;BME280;61464;51.472;5.712;2022-07-11T04:43:17;102216.66;;;16.02;88.67
42105;BME280;61464;51.472;5.712;2022-07-11T04:45:43;102211.09;;;16.05;88.45
42105;BME280;61464;51.472;5.712;2022-07-11T04:48:09;102227.34;;;16.17;88.14
42105;BME280;61464;51.472;5.712;2022-07-11T04:50:35;102213.88;;;16.12;88.13
42105;BME280;61464;51.472;5.712;2022-07-11T04:53:02;102231.94;;;16.23;87.94
42105;BME280;61464;51.472;5.712;2022-07-11T04:55:28;102224.56;;;16.18;87.93
42105;BME280;61464;51.472;5.712;2022-07-11T04:57:53;102224.75;;;16.25;87.76
42105;BME280;61464;51.472;5.712;2022-07-11T05:00:19;102236.03;;;16.25;87.83
42105;BME280;61464;51.472;5.712;2022-07-11T05:02:45;102238.81;;;16.24;87.64
42105;BME280;61464;51.472;5.712;2022-07-11T05:05:12;102233.75;;;16.22;87.56
42105;BME280;61464;51.472;5.712;2022-07-11T05:07:38;102240.78;;;16.22;87.71
42105;BME280;61464;51.472;5.712;2022-07-11T05:10:05;102229.16;;;16.16;87.83
42105;BME280;61464;51.472;5.712;2022-07-11T05:12:31;102241.75;;;16.13;88.18
42105;BME280;61464;51.472;5.712;2022-07-11T05:14:57;102243.25;;;16.23;88.11
42105;BME280;61464;51.472;5.712;2022-07-11T05:17:28;102248.84;;;16.28;88.02
42105;BME280;61464;51.472;5.712;2022-07-11T05:19:54;102251.28;;;16.30;87.92
42105;BME280;61464;51.472;5.712;2022-07-11T05:22:20;102253.22;;;16.28;87.95
42105;BME280;61464;51.472;5.712;2022-07-11T05:24:46;102252.25;;;16.29;88.13
42105;BME280;61464;51.472;5.712;2022-07-11T05:27:12;102259.78;;;16.32;87.69
42105;BME280;61464;51.472;5.712;2022-07-11T05:29:38;102257.34;;;16.22;88.10
42105;BME280;61464;51.472;5.712;2022-07-11T05:32:04;102257.81;;;16.26;87.82
42105;BME280;61464;51.472;5.712;2022-07-11T05:34:30;102251.59;;;16.19;88.44
42105;BME280;61464;51.472;5.712;2022-07-11T05:36:56;102258.91;;;16.07;89.12
42105;BME280;61464;51.472;5.712;2022-07-11T05:39:22;102253.38;;;16.18;88.83
42105;BME280;61464;51.472;5.712;2022-07-11T05:41:47;102253.22;;;16.28;88.76
42105;BME280;61464;51.472;5.712;2022-07-11T05:44:17;102261.94;;;16.28;88.39
42105;BME280;61464;51.472;5.712;2022-07-11T05:46:45;102255.81;;;16.20;88.14
42105;BME280;61464;51.472;5.712;2022-07-11T05:49:11;102241.59;;;16.14;88.48
42105;BME280;61464;51.472;5.712;2022-07-11T05:51:38;102259.31;;;16.28;88.36
42105;BME280;61464;51.472;5.712;2022-07-11T05:54:04;102258.78;;;16.17;88.88
42105;BME280;61464;51.472;5.712;2022-07-11T05:56:30;102254.19;;;16.19;89.04
42105;BME280;61464;51.472;5.712;2022-07-11T05:58:57;102265.00;;;16.24;89.66
42105;BME280;61464;51.472;5.712;2022-07-11T06:01:23;102254.03;;;16.12;89.77
42105;BME280;61464;51.472;5.712;2022-07-11T06:03:49;102261.41;;;16.17;89.79
42105;BME280;61464;51.472;5.712;2022-07-11T06:06:15;102271.44;;;16.38;89.21
42105;BME280;61464;51.472;5.712;2022-07-11T06:08:43;102272.63;;;16.43;88.60
42105;BME280;61464;51.472;5.712;2022-07-11T06:11:13;102274.75;;;16.56;87.92
42105;BME280;61464;51.472;5.712;2022-07-11T06:13:40;102270.97;;;16.42;88.18
42105;BME280;61464;51.472;5.712;2022-07-11T06:16:07;102271.47;;;16.46;88.37
42105;BME280;61464;51.472;5.712;2022-07-11T06:18:38;102279.34;;;16.54;88.21
42105;BME280;61464;51.472;5.712;2022-07-11T06:21:05;102285.13;;;16.66;88.05
42105;BME280;61464;51.472;5.712;2022-07-11T06:23:31;102283.34;;;16.83;87.22
42105;BME280;61464;51.472;5.712;2022-07-11T06:25:57;102278.06;;;16.75;87.34
42105;BME280;61464;51.472;5.712;2022-07-11T06:28:24;102282.81;;;16.79;86.93
42105;BME280;61464;51.472;5.712;2022-07-11T06:30:49;102294.44;;;16.60;87.76
42105;BME280;61464;51.472;5.712;2022-07-11T06:33:19;102281.69;;;16.74;87.92
42105;BME280;61464;51.472;5.712;2022-07-11T06:35:46;102282.50;;;16.74;87.34
42105;BME280;61464;51.472;5.712;2022-07-11T06:38:14;102285.00;;;16.84;87.02
42105;BME280;61464;51.472;5.712;2022-07-11T06:40:41;102281.50;;;16.75;87.55
42105;BME280;61464;51.472;5.712;2022-07-11T06:43:11;102289.34;;;16.59;88.68
42105;BME280;61464;51.472;5.712;2022-07-11T06:45:37;102276.72;;;16.46;89.83
42105;BME280;61464;51.472;5.712;2022-07-11T06:48:04;102290.88;;;16.19;91.52
42105;BME280;61464;51.472;5.712;2022-07-11T06:50:31;102288.59;;;16.24;92.64
42105;BME280;61464;51.472;5.712;2022-07-11T06:52:57;102268.91;;;16.12;92.70
42105;BME280;61464;51.472;5.712;2022-07-11T06:55:22;102285.59;;;16.11;92.84
42105;BME280;61464;51.472;5.712;2022-07-11T06:57:48;102283.53;;;16.22;93.44
42105;BME280;61464;51.472;5.712;2022-07-11T07:00:16;102282.38;;;16.25;93.21
42105;BME280;61464;51.472;5.712;2022-07-11T07:02:43;102286.56;;;16.09;93.36
42105;BME280;61464;51.472;5.712;2022-07-11T07:05:10;102276.53;;;16.39;93.16
42105;BME280;61464;51.472;5.712;2022-07-11T07:07:36;102286.50;;;16.36;92.26
42105;BME280;61464;51.472;5.712;2022-07-11T07:10:02;102285.78;;;16.68;91.91
42105;BME280;61464;51.472;5.712;2022-07-11T07:12:28;102282.50;;;16.66;91.18
42105;BME280;61464;51.472;5.712;2022-07-11T07:14:54;102279.22;;;16.72;90.72
42105;BME280;61464;51.472;5.712;2022-07-11T07:17:20;102272.72;;;17.01;89.00
42105;BME280;61464;51.472;5.712;2022-07-11T07:19:46;102278.13;;;16.99;87.88
42105;BME280;61464;51.472;5.712;2022-07-11T07:22:12;102262.34;;;17.32;85.71
42105;BME280;61464;51.472;5.712;2022-07-11T07:24:44;102277.91;;;17.58;84.42
42105;BME280;61464;51.472;5.712;2022-07-11T07:27:11;102277.84;;;17.91;82.33
42105;BME280;61464;51.472;5.712;2022-07-11T07:29:37;102275.50;;;17.96;82.07
42105;BME280;61464;51.472;5.712;2022-07-11T07:32:04;102269.16;;;18.22;81.22
42105;BME280;61464;51.472;5.712;2022-07-11T07:34:31;102277.22;;;18.20;79.86
42105;BME280;61464;51.472;5.712;2022-07-11T07:36:58;102255.41;;;18.12;80.12
42105;BME280;61464;51.472;5.712;2022-07-11T07:39:24;102252.50;;;18.38;79.00
42105;BME280;61464;51.472;5.712;2022-07-11T07:41:50;102268.72;;;18.41;78.42
42105;BME280;61464;51.472;5.712;2022-07-11T07:44:16;102276.16;;;19.07;76.70
42105;BME280;61464;51.472;5.712;2022-07-11T07:46:41;102278.66;;;18.85;76.17
42105;BME280;61464;51.472;5.712;2022-07-11T07:49:07;102271.59;;;18.55;77.63
42105;BME280;61464;51.472;5.712;2022-07-11T07:51:33;102265.66;;;18.61;76.71
42105;BME280;61464;51.472;5.712;2022-07-11T07:53:59;102264.69;;;18.85;76.13
42105;BME280;61464;51.472;5.712;2022-07-11T07:56:25;102276.34;;;18.59;77.69
42105;BME280;61464;51.472;5.712;2022-07-11T07:58:51;102265.81;;;18.59;77.62
42105;BME280;61464;51.472;5.712;2022-07-11T08:01:18;102268.97;;;18.78;76.65
42105;BME280;61464;51.472;5.712;2022-07-11T08:04:07;102274.75;;;18.50;77.23
42105;BME280;61464;51.472;5.712;2022-07-11T08:06:34;102277.94;;;18.92;75.38
42105;BME280;61464;51.472;5.712;2022-07-11T08:09:01;102277.78;;;18.93;75.31
42105;BME280;61464;51.472;5.712;2022-07-11T08:11:28;102294.88;;;19.12;74.29
42105;BME280;61464;51.472;5.712;2022-07-11T08:13:54;102300.69;;;19.07;74.58
42105;BME280;61464;51.472;5.712;2022-07-11T08:16:20;102278.81;;;18.84;75.14
42105;BME280;61464;51.472;5.712;2022-07-11T08:18:46;102296.69;;;18.88;74.92
42105;BME280;61464;51.472;5.712;2022-07-11T08:21:12;102298.03;;;18.84;75.71
42105;BME280;61464;51.472;5.712;2022-07-11T08:23:38;102294.00;;;18.74;75.59
42105;BME280;61464;51.472;5.712;2022-07-11T08:26:04;102295.22;;;18.63;76.53
42105;BME280;61464;51.472;5.712;2022-07-11T08:28:30;102292.13;;;18.82;75.44
42105;BME280;61464;51.472;5.712;2022-07-11T08:30:56;102295.22;;;18.63;76.54
42105;BME280;61464;51.472;5.712;2022-07-11T08:33:22;102298.44;;;18.50;76.76
42105;BME280;61464;51.472;5.712;2022-07-11T08:35:47;102301.38;;;18.16;78.75
42105;BME280;61464;51.472;5.712;2022-07-11T08:38:13;102300.38;;;18.17;78.94
42105;BME280;61464;51.472;5.712;2022-07-11T08:40:42;102301.22;;;18.17;78.44
42105;BME280;61464;51.472;5.712;2022-07-11T08:43:16;102295.88;;;18.34;78.78
42105;BME280;61464;51.472;5.712;2022-07-11T08:45:43;102291.03;;;18.14;78.11
42105;BME280;61464;51.472;5.712;2022-07-11T08:48:09;102285.00;;;18.37;77.27
42105;BME280;61464;51.472;5.712;2022-07-11T08:50:36;102295.59;;;18.20;78.27
42105;BME280;61464;51.472;5.712;2022-07-11T08:53:05;102309.41;;;18.85;76.07
42105;BME280;61464;51.472;5.712;2022-07-11T08:55:32;102300.13;;;18.97;75.22
42105;BME280;61464;51.472;5.712;2022-07-11T08:57:58;102298.56;;;19.26;74.48
42105;BME280;61464;51.472;5.712;2022-07-11T09:00:25;102301.28;;;19.47;73.65
42105;BME280;61464;51.472;5.712;2022-07-11T09:02:53;102285.88;;;19.44;72.97
42105;BME280;61464;51.472;5.712;2022-07-11T09:05:19;102297.63;;;19.34;72.95
42105;BME280;61464;51.472;5.712;2022-07-11T09:07:49;102304.53;;;19.20;72.75
42105;BME280;61464;51.472;5.712;2022-07-11T09:10:17;102299.34;;;19.12;74.37
42105;BME280;61464;51.472;5.712;2022-07-11T09:13:09;102296.38;;;18.92;74.89
42105;BME280;61464;51.472;5.712;2022-07-11T09:15:46;102297.25;;;18.53;75.71
42105;BME280;61464;51.472;5.712;2022-07-11T09:23:53;102297.69;;;18.64;75.50
42105;BME280;61464;51.472;5.712;2022-07-11T09:26:41;102304.63;;;18.57;75.95
42105;BME280;61464;51.472;5.712;2022-07-11T09:29:10;102308.50;;;18.38;76.50
42105;BME280;61464;51.472;5.712;2022-07-11T09:31:38;102311.34;;;18.60;76.34
42105;BME280;61464;51.472;5.712;2022-07-11T09:34:11;102297.56;;;18.26;77.02
42105;BME280;61464;51.472;5.712;2022-07-11T09:36:42;102309.34;;;18.62;76.55
42105;BME280;61464;51.472;5.712;2022-07-11T09:39:15;102308.53;;;18.61;76.71
42105;BME280;61464;51.472;5.712;2022-07-11T09:41:41;102290.06;;;18.69;76.20
42105;BME280;61464;51.472;5.712;2022-07-11T09:44:20;102301.88;;;18.74;75.43
42105;BME280;61464;51.472;5.712;2022-07-11T09:46:49;102295.00;;;18.73;75.45
42105;BME280;61464;51.472;5.712;2022-07-11T09:49:30;102303.69;;;18.81;75.06
42105;BME280;61464;51.472;5.712;2022-07-11T09:54:32;102291.69;;;18.47;76.06
42105;BME280;61464;51.472;5.712;2022-07-11T09:56:58;102292.00;;;18.21;77.54
42105;BME280;61464;51.472;5.712;2022-07-11T09:59:24;102295.66;;;18.12;77.63
42105;BME280;61464;51.472;5.712;2022-07-11T10:01:50;102303.16;;;18.23;77.88
42105;BME280;61464;51.472;5.712;2022-07-11T10:04:15;102300.19;;;18.26;77.39
42105;BME280;61464;51.472;5.712;2022-07-11T10:06:41;102294.31;;;18.47;76.64
42105;BME280;61464;51.472;5.712;2022-07-11T10:09:07;102291.47;;;18.57;76.26
42105;BME280;61464;51.472;5.712;2022-07-11T10:11:33;102304.97;;;18.54;76.40
42105;BME280;61464;51.472;5.712;2022-07-11T10:14:03;102307.94;;;18.51;76.96
42105;BME280;61464;51.472;5.712;2022-07-11T10:17:02;102304.09;;;18.62;76.37
42105;BME280;61464;51.472;5.712;2022-07-11T10:28:36;102305.22;;;19.66;72.15
42105;BME280;61464;51.472;5.712;2022-07-11T10:31:03;102302.78;;;19.95;70.55
42105;BME280;61464;51.472;5.712;2022-07-11T10:33:30;102313.50;;;19.63;71.26
42105;BME280;61464;51.472;5.712;2022-07-11T10:35:56;102313.75;;;19.68;71.27
42105;BME280;61464;51.472;5.712;2022-07-11T10:38:23;102299.41;;;19.56;71.67
42105;BME280;61464;51.472;5.712;2022-07-11T10:40:58;102312.22;;;19.21;73.40
42105;BME280;61464;51.472;5.712;2022-07-11T10:48:28;102317.19;;;19.39;73.04
42105;BME280;61464;51.472;5.712;2022-07-11T10:51:03;102322.63;;;19.38;73.02
42105;BME280;61464;51.472;5.712;2022-07-11T10:53:43;102314.13;;;19.50;72.71
42105;BME280;61464;51.472;5.712;2022-07-11T10:56:48;102308.84;;;19.65;71.93
42105;BME280;61464;51.472;5.712;2022-07-11T10:59:18;102307.34;;;19.71;72.04
42105;BME280;61464;51.472;5.712;2022-07-11T11:02:12;102311.94;;;20.28;69.92
42105;BME280;61464;51.472;5.712;2022-07-11T11:04:58;102306.34;;;20.38;70.29
42105;BME280;61464;51.472;5.712;2022-07-11T11:07:38;102318.47;;;20.33;69.48
42105;BME280;61464;51.472;5.712;2022-07-11T11:15:55;102315.63;;;20.34;68.87
42105;BME280;61464;51.472;5.712;2022-07-11T11:23:38;102317.69;;;21.18;65.72
42105;BME280;61464;51.472;5.712;2022-07-11T11:29:01;102316.69;;;21.76;64.36
42105;BME280;61464;51.472;5.712;2022-07-11T11:31:30;102321.25;;;21.54;64.39
42105;BME280;61464;51.472;5.712;2022-07-11T11:34:01;102315.22;;;21.66;64.80
42105;BME280;61464;51.472;5.712;2022-07-11T11:36:28;102320.13;;;21.69;64.50
42105;BME280;61464;51.472;5.712;2022-07-11T11:38:55;102313.53;;;21.94;63.26
42105;BME280;61464;51.472;5.712;2022-07-11T11:41:27;102311.72;;;21.59;62.87
42105;BME280;61464;51.472;5.712;2022-07-11T11:43:58;102313.19;;;20.69;66.24
42105;BME280;61464;51.472;5.712;2022-07-11T11:46:30;102310.56;;;20.90;66.17
42105;BME280;61464;51.472;5.712;2022-07-11T11:49:03;102305.34;;;21.19;65.25
42105;BME280;61464;51.472;5.712;2022-07-11T11:51:32;102305.59;;;21.30;64.59
42105;BME280;61464;51.472;5.712;2022-07-11T11:54:01;102300.50;;;21.01;65.55
42105;BME280;61464;51.472;5.712;2022-07-11T11:56:30;102292.84;;;21.34;65.29
42105;BME280;61464;51.472;5.712;2022-07-11T11:59:10;102304.78;;;21.30;65.12
42105;BME280;61464;51.472;5.712;2022-07-11T12:01:40;102308.50;;;21.36;66.07
42105;BME280;61464;51.472;5.712;2022-07-11T12:04:14;102300.91;;;21.47;64.74
42105;BME280;61464;51.472;5.712;2022-07-11T12:06:45;102289.78;;;21.59;65.27
42105;BME280;61464;51.472;5.712;2022-07-11T12:09:15;102303.28;;;20.93;66.32
42105;BME280;61464;51.472;5.712;2022-07-11T12:11:45;102294.56;;;21.20;65.43
42105;BME280;61464;51.472;5.712;2022-07-11T12:14:13;102301.53;;;21.49;64.80
42105;BME280;61464;51.472;5.712;2022-07-11T12:16:49;102308.53;;;21.14;65.70
42105;BME280;61464;51.472;5.712;2022-07-11T12:19:18;102301.91;;;20.97;66.39
42105;BME280;61464;51.472;5.712;2022-07-11T12:21:53;102294.34;;;20.94;66.40
42105;BME280;61464;51.472;5.712;2022-07-11T12:24:24;102303.25;;;21.14;65.02
42105;BME280;61464;51.472;5.712;2022-07-11T12:26:52;102303.53;;;21.26;64.45
42105;BME280;61464;51.472;5.712;2022-07-11T12:29:23;102295.88;;;22.01;62.79
42105;BME280;61464;51.472;5.712;2022-07-11T12:31:55;102295.66;;;22.57;61.09
42105;BME280;61464;51.472;5.712;2022-07-11T12:34:45;102296.53;;;23.04;59.79
42105;BME280;61464;51.472;5.712;2022-07-11T12:37:13;102299.78;;;22.12;62.82
42105;BME280;61464;51.472;5.712;2022-07-11T12:39:49;102287.88;;;21.46;64.37
42105;BME280;61464;51.472;5.712;2022-07-11T12:42:31;102298.31;;;21.33;64.77
42105;BME280;61464;51.472;5.712;2022-07-11T12:45:08;102289.56;;;21.32;65.19
42105;BME280;61464;51.472;5.712;2022-07-11T12:47:42;102282.25;;;21.06;66.28
42105;BME280;61464;51.472;5.712;2022-07-11T12:50:24;102286.97;;;21.39;65.42
42105;BME280;61464;51.472;5.712;2022-07-11T12:52:56;102286.41;;;21.15;65.79
42105;BME280;61464;51.472;5.712;2022-07-11T12:55:27;102278.38;;;21.30;65.66
42105;BME280;61464;51.472;5.712;2022-07-11T12:58:07;102269.84;;;21.28;65.19
42105;BME280;61464;51.472;5.712;2022-07-11T13:00:42;102282.63;;;21.53;64.55
42105;BME280;61464;51.472;5.712;2022-07-11T13:03:08;102280.06;;;21.66;64.21
42105;BME280;61464;51.472;5.712;2022-07-11T13:05:50;102271.31;;;22.14;62.62
42105;BME280;61464;51.472;5.712;2022-07-11T13:08:30;102289.38;;;22.65;60.88
42105;BME280;61464;51.472;5.712;2022-07-11T13:11:19;102283.41;;;22.29;61.76
42105;BME280;61464;51.472;5.712;2022-07-11T13:13:47;102279.34;;;22.47;61.31
42105;BME280;61464;51.472;5.712;2022-07-11T13:16:14;102272.50;;;23.26;59.45
42105;BME280;61464;51.472;5.712;2022-07-11T13:18:40;102282.59;;;23.69;57.43
42105;BME280;61464;51.472;5.712;2022-07-11T13:21:07;102291.22;;;23.11;57.90
42105;BME280;61464;51.472;5.712;2022-07-11T13:23:34;102296.03;;;22.47;59.13
42105;BME280;61464;51.472;5.712;2022-07-11T13:26:00;102294.44;;;22.53;58.61
42105;BME280;61464;51.472;5.712;2022-07-11T13:28:26;102300.81;;;23.19;58.60
42105;BME280;61464;51.472;5.712;2022-07-11T13:30:53;102290.41;;;22.84;59.33
42105;BME280;61464;51.472;5.712;2022-07-11T13:33:20;102288.19;;;22.13;61.22
42105;BME280;61464;51.472;5.712;2022-07-11T13:35:48;102284.84;;;22.45;60.23